Time;durP1;ratioP1;P1;durP2;ratioP2;P2;SDS_P1;SDS_P2;PMS_P1;PMS_P2;Temp;Humidity;BMP_temperature;BMP_pressure;BME280_temperature;BME280_humidity;BME280_pressure;Samples;Min_cycle;Max_cycle;Signal;HPM_P1;HPM_P2
2023/01/04 00:00:20;;;;;;;14.80;10.33;;;2.20;99.90;;;;;;4973185;28;20720;-87
2023/01/04 00:02:45;;;;;;;16.10;10.90;;;2.20;99.90;;;;;;4972466;28;20503;-87
2023/01/04 00:05:11;;;;;;;16.97;10.67;;;2.20;99.90;;;;;;4970096;28;20082;-87
2023/01/04 00:07:36;;;;;;;16.03;10.33;;;2.10;99.90;;;;;;4969468;28;20109;-87
2023/01/04 00:10:02;;;;;;;14.50;10.23;;;2.20;99.90;;;;;;4966484;28;20027;-88
2023/01/04 00:12:28;;;;;;;15.63;11.20;;;2.10;99.90;;;;;;4968373;28;20019;-87
2023/01/04 00:14:53;;;;;;;16.63;11.50;;;2.10;99.90;;;;;;4971483;28;20043;-88
2023/01/04 00:17:19;;;;;;;17.47;11.13;;;2.10;99.90;;;;;;4969433;28;20030;-87
2023/01/04 00:19:44;;;;;;;18.87;11.67;;;2.10;99.90;;;;;;4968214;28;20084;-87
2023/01/04 00:22:10;;;;;;;19.50;11.70;;;2.00;99.90;;;;;;4968265;28;20084;-87
2023/01/04 00:24:35;;;;;;;15.70;11.90;;;2.10;99.90;;;;;;4968297;28;20110;-88
2023/01/04 00:27:01;;;;;;;16.57;11.33;;;2.00;99.90;;;;;;4970090;28;20026;-88
2023/01/04 00:29:27;;;;;;;14.97;10.73;;;2.00;99.90;;;;;;4969203;28;20035;-87
2023/01/04 00:31:52;;;;;;;16.27;10.57;;;2.00;99.90;;;;;;4968733;28;20055;-88
2023/01/04 00:34:18;;;;;;;14.57;10.97;;;1.90;99.90;;;;;;4970437;28;20027;-87
2023/01/04 00:36:44;;;;;;;19.47;13.90;;;1.90;99.90;;;;;;4973416;28;20023;-88
2023/01/04 00:39:14;;;;;;;16.97;12.00;;;1.80;99.90;;;;;;4973821;28;20023;-88
2023/01/04 00:41:43;;;;;;;16.37;11.03;;;1.80;99.90;;;;;;4975098;28;20022;-87
2023/01/04 00:44:10;;;;;;;15.07;10.53;;;1.70;99.90;;;;;;4972783;28;20029;-87
2023/01/04 00:46:36;;;;;;;15.80;10.83;;;1.70;99.90;;;;;;4972068;28;20118;-88
2023/01/04 00:49:03;;;;;;;14.63;10.17;;;1.70;99.90;;;;;;4970795;28;20070;-88
2023/01/04 00:51:30;;;;;;;15.17;10.97;;;1.70;99.90;;;;;;4973482;28;20472;-87
2023/01/04 00:53:58;;;;;;;17.30;11.30;;;1.70;99.90;;;;;;4972529;28;20475;-88
2023/01/04 00:56:24;;;;;;;17.13;12.90;;;1.70;99.90;;;;;;4972374;28;20122;-88
2023/01/04 00:58:54;;;;;;;21.87;13.70;;;1.70;99.90;;;;;;4970871;28;20119;-88
2023/01/04 01:01:19;;;;;;;32.93;20.70;;;1.80;99.90;;;;;;4973769;28;20019;-87
2023/01/04 01:03:45;;;;;;;26.93;17.70;;;1.80;99.90;;;;;;4972085;28;20112;-88
2023/01/04 01:06:11;;;;;;;19.47;13.93;;;1.80;99.90;;;;;;4971256;28;20110;-87
2023/01/04 01:08:37;;;;;;;22.63;13.57;;;1.70;99.90;;;;;;4972189;28;20042;-87
2023/01/04 01:11:08;;;;;;;22.63;14.20;;;1.70;99.90;;;;;;4972733;28;20097;-87
2023/01/04 01:13:34;;;;;;;21.33;13.10;;;1.70;99.90;;;;;;4972944;28;20026;-87
2023/01/04 01:16:09;;;;;;;21.20;13.00;;;1.70;99.90;;;;;;4972300;28;20480;-87
2023/01/04 01:18:36;;;;;;;17.85;12.32;;;1.70;99.90;;;;;;4972634;28;20034;-87
2023/01/04 01:21:06;;;;;;;12.47;9.27;;;1.60;99.90;;;;;;4987198;28;20037;-87
2023/01/04 01:23:32;;;;;;;19.63;9.70;;;1.60;99.90;;;;;;4971976;28;20076;-87
2023/01/04 01:26:02;;;;;;;17.13;9.43;;;1.50;99.90;;;;;;4969954;28;20117;-87
2023/01/04 01:28:28;;;;;;;12.73;8.97;;;1.50;99.90;;;;;;4971622;28;20033;-87
2023/01/04 01:30:55;;;;;;;12.00;9.00;;;1.40;99.90;;;;;;4972655;28;20484;-87
2023/01/04 01:33:20;;;;;;;11.83;8.93;;;1.50;99.90;;;;;;4971213;28;20385;-87
2023/01/04 01:35:46;;;;;;;13.70;10.37;;;1.50;99.90;;;;;;4970227;28;20106;-88
2023/01/04 01:38:11;;;;;;;83.13;13.23;;;1.50;99.90;;;;;;4970044;28;20121;-88
2023/01/04 01:40:44;;;;;;;70.90;13.97;;;1.60;99.90;;;;;;4971982;28;20026;-88
2023/01/04 01:43:18;;;;;;;72.33;13.87;;;1.60;99.90;;;;;;4973925;28;20053;-88
2023/01/04 01:45:45;;;;;;;68.43;14.00;;;1.70;99.90;;;;;;4971639;28;20039;-88
2023/01/04 01:48:24;;;;;;;205.97;16.50;;;1.70;99.90;;;;;;4972478;28;20038;-87
2023/01/04 01:51:01;;;;;;;142.60;16.17;;;1.80;99.90;;;;;;4972644;28;20026;-88
2023/01/04 01:53:29;;;;;;;203.17;19.83;;;1.90;99.90;;;;;;4973803;28;20022;-88
2023/01/04 01:55:56;;;;;;;95.57;20.83;;;1.90;99.90;;;;;;4974318;28;20034;-89
2023/01/04 01:58:33;;;;;;;22.57;16.87;;;1.90;99.90;;;;;;4976555;28;20057;-88
2023/01/04 02:00:59;;;;;;;31.33;18.27;;;2.00;99.90;;;;;;4973445;28;20037;-88
2023/01/04 02:03:34;;;;;;;34.67;18.30;;;2.00;99.90;;;;;;4974994;28;20572;-88
2023/01/04 02:06:02;;;;;;;20.90;15.70;;;2.00;99.90;;;;;;4972893;28;20041;-88
2023/01/04 02:08:29;;;;;;;27.10;16.03;;;2.10;99.90;;;;;;4972615;28;20045;-88
2023/01/04 02:10:55;;;;;;;30.13;15.60;;;2.20;99.90;;;;;;4973728;28;20046;-87
2023/01/04 02:14:25;;;;;;;18.43;14.30;;;2.20;99.90;;;;;;4973434;28;20034;-88
2023/01/04 02:16:34;;;;;;;20.70;14.47;;;2.30;99.90;;;;;;4974657;28;20086;-88
2023/01/04 02:19:26;;;;;;;19.33;14.60;;;2.40;99.90;;;;;;4974961;28;20035;-88
2023/01/04 02:22:27;;;;;;;20.10;15.30;;;2.40;99.90;;;;;;4973614;28;20042;-88
2023/01/04 02:25:26;;;;;;;20.40;15.10;;;2.50;99.90;;;;;;4972619;28;20105;-88
2023/01/04 02:28:00;;;;;;;18.17;14.43;;;2.60;99.90;;;;;;4973662;28;20461;-88
2023/01/04 02:30:36;;;;;;;20.40;14.27;;;2.70;99.90;;;;;;4972870;28;20134;-88
2023/01/04 02:33:02;;;;;;;21.43;15.60;;;2.70;99.90;;;;;;4973128;28;20109;-88
2023/01/04 02:35:36;;;;;;;21.03;15.73;;;2.80;99.90;;;;;;4973290;28;20377;-88
2023/01/04 02:38:22;;;;;;;21.63;16.03;;;2.80;99.90;;;;;;4974194;28;20489;-88
2023/01/04 02:40:56;;;;;;;24.48;17.58;;;2.90;99.90;;;;;;4972459;28;20035;-88
2023/01/04 02:47:04;;;;;;;23.13;17.20;;;3.00;99.90;;;;;;4972785;28;20129;-88
2023/01/04 02:52:14;;;;;;;18.33;14.60;;;3.10;99.90;;;;;;4973445;28;20029;-88
2023/01/04 02:54:42;;;;;;;17.60;13.83;;;3.10;99.90;;;;;;4974884;28;20049;-88
2023/01/04 02:57:20;;;;;;;18.23;13.87;;;3.10;99.90;;;;;;4972119;28;20121;-88
2023/01/04 03:00:33;;;;;;;16.93;13.43;;;3.10;99.90;;;;;;4972284;28;20573;-88
2023/01/04 03:06:23;;;;;;;17.23;13.47;;;3.00;99.90;;;;;;4971936;28;20078;-88
2023/01/04 03:09:07;;;;;;;18.00;13.50;;;3.10;99.90;;;;;;4971026;28;20038;-88
2023/01/04 03:14:59;;;;;;;17.43;12.70;;;3.00;99.90;;;;;;4971698;28;20053;-87
2023/01/04 03:17:28;;;;;;;19.00;13.97;;;3.00;99.90;;;;;;4972510;28;20440;-88
2023/01/04 03:19:55;;;;;;;18.10;13.87;;;2.90;99.90;;;;;;4970605;28;20018;-88
2023/01/04 03:37:29;;;;;;;22.10;15.53;;;2.80;99.90;;;;;;4970207;28;21466;-88
2023/01/04 03:48:58;;;;;;;20.63;15.43;;;2.80;99.90;;;;;;4968820;28;20077;-88
2023/01/04 03:51:35;;;;;;;19.50;14.10;;;2.80;99.90;;;;;;4971698;28;20014;-88
2023/01/04 03:54:10;;;;;;;19.57;14.13;;;2.80;99.90;;;;;;4968643;28;20030;-88
2023/01/04 03:56:42;;;;;;;21.60;15.43;;;2.70;99.90;;;;;;4970900;28;20418;-88
2023/01/04 03:59:09;;;;;;;20.27;15.33;;;2.70;99.90;;;;;;4969397;28;20479;-88
2023/01/04 04:01:36;;;;;;;19.67;14.37;;;2.70;99.90;;;;;;4971820;28;20027;-88
2023/01/04 04:09:29;;;;;;;20.73;15.07;;;2.70;99.90;;;;;;4972413;28;20030;-87
2023/01/04 04:11:57;;;;;;;21.67;15.50;;;2.60;99.90;;;;;;4975037;28;20027;-88
2023/01/04 04:14:22;;;;;;;19.67;14.10;;;2.60;99.90;;;;;;4988728;28;20473;-88
2023/01/04 04:16:48;;;;;;;19.63;14.77;;;2.60;99.90;;;;;;4975020;28;20061;-88
2023/01/04 04:19:13;;;;;;;21.70;14.70;;;2.60;99.90;;;;;;4975804;28;20023;-88
2023/01/04 04:21:39;;;;;;;19.40;13.97;;;2.70;99.90;;;;;;4974008;28;20023;-88
2023/01/04 04:24:05;;;;;;;20.13;13.90;;;2.70;99.90;;;;;;4973075;28;20538;-88
2023/01/04 04:26:32;;;;;;;16.97;13.60;;;2.70;99.90;;;;;;4975399;28;20031;-88
2023/01/04 04:28:58;;;;;;;18.00;12.93;;;2.70;99.90;;;;;;4975308;28;20023;-88
2023/01/04 04:31:23;;;;;;;19.97;14.80;;;2.80;99.90;;;;;;4975207;28;20412;-88
2023/01/04 04:33:49;;;;;;;19.70;13.80;;;2.80;99.90;;;;;;4975288;28;20026;-88
2023/01/04 04:36:14;;;;;;;19.20;12.73;;;2.80;99.90;;;;;;4975304;28;20980;-87
2023/01/04 04:38:40;;;;;;;18.40;13.10;;;2.80;99.90;;;;;;4974073;28;20494;-88
2023/01/04 04:43:51;;;;;;;;;;;2.80;99.90;;;;;;4975868;28;20030;-88
2023/01/04 04:46:17;;;;;;;15.87;11.37;;;2.90;99.90;;;;;;4974760;28;19918;-88
2023/01/04 04:48:43;;;;;;;14.27;10.90;;;2.90;99.90;;;;;;4975198;28;20443;-88
2023/01/04 04:51:08;;;;;;;18.30;12.13;;;2.80;99.90;;;;;;4975832;28;20150;-88
2023/01/04 04:53:34;;;;;;;14.70;11.60;;;2.90;99.90;;;;;;4974318;28;20149;-88
2023/01/04 04:55:59;;;;;;;14.03;10.40;;;2.80;99.90;;;;;;4974748;28;20034;-88
2023/01/04 04:58:25;;;;;;;14.23;10.33;;;2.80;99.90;;;;;;4974733;28;20499;-88
2023/01/04 05:00:51;;;;;;;13.93;9.90;;;2.80;99.90;;;;;;4973950;28;20037;-87
2023/01/04 05:03:16;;;;;;;13.33;9.97;;;2.80;99.90;;;;;;4973852;28;20034;-88
2023/01/04 05:05:42;;;;;;;11.93;9.43;;;2.70;99.90;;;;;;4973976;28;20031;-87
2023/01/04 05:08:08;;;;;;;12.97;9.43;;;2.70;99.90;;;;;;4973559;28;20034;-88
2023/01/04 05:10:33;;;;;;;10.87;9.13;;;2.70;99.90;;;;;;4975120;28;20019;-88
2023/01/04 05:12:59;;;;;;;10.33;8.43;;;2.70;99.90;;;;;;4973980;28;20154;-88
2023/01/04 05:15:37;;;;;;;10.40;8.13;;;2.60;99.90;;;;;;4972605;28;20026;-88
2023/01/04 05:18:04;;;;;;;11.73;9.07;;;2.60;99.90;;;;;;4973641;28;20480;-87
2023/01/04 05:20:30;;;;;;;12.63;9.17;;;2.60;99.90;;;;;;4972226;28;20106;-88
2023/01/04 05:22:55;;;;;;;12.23;8.70;;;2.50;99.90;;;;;;4974973;28;20105;-87
2023/01/04 05:25:21;;;;;;;11.23;9.00;;;2.50;99.90;;;;;;4975261;28;20030;-88
2023/01/04 05:27:46;;;;;;;12.57;9.73;;;2.50;99.90;;;;;;4974448;28;20022;-87
2023/01/04 05:32:59;;;;;;;10.93;8.67;;;2.40;99.90;;;;;;4974011;28;20026;-87
2023/01/04 05:35:25;;;;;;;9.83;7.83;;;2.30;99.90;;;;;;4979473;28;20030;-88
2023/01/04 05:37:50;;;;;;;10.67;8.07;;;2.30;99.90;;;;;;4974565;28;20080;-87
2023/01/04 05:40:16;;;;;;;10.77;8.87;;;2.20;99.90;;;;;;4974756;28;20100;-80
2023/01/04 05:42:42;;;;;;;12.73;8.50;;;2.20;99.90;;;;;;4978622;28;20129;-79
2023/01/04 05:45:07;;;;;;;10.23;7.40;;;2.20;99.90;;;;;;4989546;28;20053;-79
2023/01/04 05:47:33;;;;;;;10.37;8.23;;;2.10;99.90;;;;;;4987177;28;20149;-80
2023/01/04 05:49:59;;;;;;;9.93;7.57;;;2.20;99.90;;;;;;4983834;28;20094;-79
2023/01/04 05:52:25;;;;;;;9.73;7.67;;;2.10;99.90;;;;;;4983389;28;20497;-80
2023/01/04 05:54:50;;;;;;;9.53;7.60;;;2.10;99.90;;;;;;4981517;28;20086;-80
2023/01/04 05:57:17;;;;;;;9.50;7.47;;;2.00;99.90;;;;;;4992765;28;20014;-80
2023/01/04 05:59:43;;;;;;;11.40;8.53;;;2.00;99.90;;;;;;4990896;28;20030;-80
2023/01/04 06:02:20;;;;;;;10.97;8.60;;;2.00;99.90;;;;;;4994940;28;20026;-80
2023/01/04 06:04:46;;;;;;;13.97;8.60;;;2.00;99.90;;;;;;4984011;28;20498;-80
2023/01/04 06:07:12;;;;;;;10.73;8.53;;;2.00;99.90;;;;;;4979074;28;20026;-86
2023/01/04 06:09:39;;;;;;;10.80;8.33;;;2.10;99.90;;;;;;4974343;28;20031;-85
2023/01/04 06:12:04;;;;;;;11.50;8.63;;;2.10;99.90;;;;;;4968774;28;20046;-86
2023/01/04 06:14:30;;;;;;;11.60;8.93;;;2.10;99.90;;;;;;4968399;28;20018;-87
2023/01/04 06:16:56;;;;;;;11.10;8.53;;;2.20;99.90;;;;;;4976209;28;20061;-88
2023/01/04 06:19:21;;;;;;;12.77;8.67;;;2.20;99.90;;;;;;4968535;28;20025;-87
2023/01/04 06:21:47;;;;;;;11.30;7.77;;;2.30;99.90;;;;;;4967439;28;20146;-87
2023/01/04 06:24:12;;;;;;;10.97;8.50;;;2.30;99.90;;;;;;4970734;28;20055;-87
2023/01/04 06:26:38;;;;;;;10.70;7.37;;;2.40;99.90;;;;;;4967713;28;20027;-87
2023/01/04 06:29:04;;;;;;;8.57;7.10;;;2.40;99.90;;;;;;4970293;28;20052;-77
2023/01/04 06:31:30;;;;;;;8.57;6.83;;;2.40;99.90;;;;;;4981063;28;20030;-81
2023/01/04 06:33:56;;;;;;;10.43;7.37;;;2.40;99.90;;;;;;4984392;28;20034;-81
2023/01/04 06:36:21;;;;;;;8.47;7.07;;;2.40;99.90;;;;;;4983830;28;20035;-80
2023/01/04 06:38:48;;;;;;;9.10;7.43;;;2.50;99.90;;;;;;4987312;28;20066;-81
2023/01/04 06:41:13;;;;;;;9.57;7.43;;;2.50;99.90;;;;;;4983425;28;20065;-81
2023/01/04 06:43:39;;;;;;;9.47;7.30;;;2.50;99.90;;;;;;4967889;28;20113;-81
2023/01/04 06:46:04;;;;;;;9.93;7.20;;;2.50;99.90;;;;;;4978936;28;20513;-82
2023/01/04 06:48:30;;;;;;;9.03;7.07;;;2.50;99.90;;;;;;4974856;28;20110;-81
2023/01/04 06:50:55;;;;;;;9.47;7.10;;;2.50;99.90;;;;;;4981328;28;20058;-80
2023/01/04 06:53:21;;;;;;;9.33;7.00;;;2.60;99.90;;;;;;4981943;28;20054;-80
2023/01/04 06:55:46;;;;;;;9.67;7.20;;;2.60;99.90;;;;;;4983122;28;20155;-80
2023/01/04 06:58:12;;;;;;;10.13;7.73;;;2.60;99.90;;;;;;4973701;28;20146;-87
2023/01/04 07:00:38;;;;;;;10.57;7.30;;;2.60;99.90;;;;;;4967214;28;20808;-87
2023/01/04 07:03:03;;;;;;;10.40;7.30;;;2.70;99.90;;;;;;4965546;28;20023;-81
2023/01/04 07:05:29;;;;;;;9.50;7.33;;;2.70;99.90;;;;;;4964587;28;20415;-81
2023/01/04 07:07:54;;;;;;;8.80;6.90;;;2.70;99.90;;;;;;4950965;28;20290;-81
2023/01/04 07:10:20;;;;;;;9.53;7.27;;;2.80;99.90;;;;;;4955884;28;20104;-81
2023/01/04 07:12:45;;;;;;;11.63;7.93;;;2.80;99.90;;;;;;4967951;28;20022;-76
2023/01/04 07:15:11;;;;;;;9.60;7.20;;;2.80;99.90;;;;;;4971336;28;20023;-76
2023/01/04 07:17:36;;;;;;;10.00;6.80;;;2.80;99.90;;;;;;4970449;28;20063;-76
2023/01/04 07:20:03;;;;;;;9.90;7.10;;;2.80;99.90;;;;;;4971004;28;20494;-76
2023/01/04 07:22:29;;;;;;;8.70;6.73;;;2.80;99.90;;;;;;4971036;28;20037;-77
2023/01/04 07:24:54;;;;;;;9.50;6.60;;;2.70;99.90;;;;;;4970051;28;20030;-76
2023/01/04 07:27:20;;;;;;;8.40;6.50;;;2.70;99.90;;;;;;4969333;28;20423;-76
2023/01/04 07:29:46;;;;;;;7.57;6.13;;;2.70;99.90;;;;;;4961774;28;20122;-81
2023/01/04 07:32:11;;;;;;;8.57;6.43;;;2.70;99.90;;;;;;4961056;28;20033;-81
2023/01/04 07:34:38;;;;;;;9.00;6.70;;;2.70;99.90;;;;;;4960178;28;20026;-81
2023/01/04 07:37:05;;;;;;;10.40;6.53;;;2.70;99.90;;;;;;4963422;28;20029;-77
2023/01/04 07:39:31;;;;;;;7.90;5.93;;;2.70;99.90;;;;;;4969454;28;20105;-77
2023/01/04 07:41:56;;;;;;;8.20;6.20;;;2.70;99.90;;;;;;4971847;28;20101;-77
2023/01/04 07:44:24;;;;;;;7.73;6.03;;;2.80;99.90;;;;;;4975334;28;20058;-77
2023/01/04 07:46:49;;;;;;;10.47;6.53;;;2.80;99.90;;;;;;4975707;28;20027;-76
2023/01/04 07:49:17;;;;;;;8.80;6.53;;;2.80;99.90;;;;;;4979904;28;20098;-77
2023/01/04 07:51:43;;;;;;;10.90;7.67;;;2.90;99.90;;;;;;4975638;28;20468;-77
2023/01/04 07:54:09;;;;;;;10.47;7.67;;;2.90;99.90;;;;;;4977691;28;20057;-76
2023/01/04 07:56:35;;;;;;;9.67;6.53;;;3.00;99.90;;;;;;4974132;28;20201;-76
2023/01/04 07:59:00;;;;;;;8.40;6.27;;;3.10;99.90;;;;;;4975588;28;20039;-77
2023/01/04 08:01:26;;;;;;;7.90;5.53;;;3.10;99.90;;;;;;4972662;28;20475;-77
2023/01/04 08:03:53;;;;;;;7.77;5.53;;;3.20;99.90;;;;;;4973217;28;20018;-77
2023/01/04 08:06:20;;;;;;;7.40;5.47;;;3.30;99.90;;;;;;4974250;28;20043;-77
2023/01/04 08:08:46;;;;;;;9.00;5.30;;;3.40;99.90;;;;;;4971968;28;20490;-77
2023/01/04 08:11:14;;;;;;;6.37;5.20;;;3.50;99.90;;;;;;4975546;28;20051;-77
2023/01/04 08:13:41;;;;;;;7.03;5.23;;;3.50;99.90;;;;;;4973612;28;20519;-77
2023/01/04 08:16:07;;;;;;;7.40;5.37;;;3.60;99.90;;;;;;4976261;28;20041;-76
2023/01/04 08:18:33;;;;;;;8.40;5.77;;;3.70;99.90;;;;;;4978797;28;20027;-76
2023/01/04 08:21:03;;;;;;;7.60;5.10;;;3.80;99.90;;;;;;4978247;28;20027;-76
2023/01/04 08:23:28;;;;;;;6.07;5.07;;;3.90;99.90;;;;;;4973589;28;20486;-79
2023/01/04 08:25:54;;;;;;;6.40;4.63;;;3.90;99.90;;;;;;4975103;28;20111;-77
2023/01/04 08:28:19;;;;;;;5.97;4.60;;;4.00;99.90;;;;;;4977742;28;20022;-77
2023/01/04 08:30:45;;;;;;;5.80;4.37;;;4.10;99.90;;;;;;4967416;28;20039;-80
2023/01/04 08:33:14;;;;;;;4.97;4.00;;;4.20;99.90;;;;;;4961758;28;20034;-80
2023/01/04 08:35:40;;;;;;;4.17;3.47;;;4.40;99.90;;;;;;4961284;28;20040;-81
2023/01/04 08:38:05;;;;;;;4.60;3.60;;;4.50;99.90;;;;;;4960873;28;21616;-80
2023/01/04 08:40:31;;;;;;;4.00;3.30;;;4.60;99.90;;;;;;4960779;28;20023;-81
2023/01/04 08:43:00;;;;;;;4.77;3.50;;;4.70;99.90;;;;;;4964050;28;20061;-81
2023/01/04 08:45:25;;;;;;;4.90;3.40;;;4.90;99.90;;;;;;4961605;28;20113;-81
2023/01/04 08:47:51;;;;;;;4.33;3.43;;;5.00;99.90;;;;;;4964929;28;20026;-76
2023/01/04 08:50:19;;;;;;;5.03;3.60;;;5.20;99.90;;;;;;4973447;28;20029;-77
2023/01/04 08:52:45;;;;;;;4.60;3.43;;;5.30;99.90;;;;;;4964286;28;20018;-81
2023/01/04 08:55:10;;;;;;;5.47;3.63;;;5.40;99.90;;;;;;4960680;28;20093;-81
2023/01/04 08:57:36;;;;;;;4.57;3.03;;;5.50;99.90;;;;;;4961911;28;20042;-81
2023/01/04 09:00:03;;;;;;;3.80;2.87;;;5.60;99.90;;;;;;4963962;28;20047;-81
2023/01/04 09:02:28;;;;;;;3.50;2.60;;;5.60;99.90;;;;;;4962317;28;20034;-81
2023/01/04 09:04:58;;;;;;;4.10;2.90;;;5.70;99.90;;;;;;4961655;28;20039;-81
2023/01/04 09:07:28;;;;;;;4.10;2.80;;;5.70;99.90;;;;;;4959379;28;20088;-81
2023/01/04 09:09:53;;;;;;;4.13;2.67;;;5.70;99.90;;;;;;4961034;28;20924;-81
2023/01/04 09:12:19;;;;;;;3.50;2.70;;;5.70;99.90;;;;;;4961733;28;20077;-80
2023/01/04 09:14:45;;;;;;;3.37;2.60;;;5.80;99.90;;;;;;4963084;28;20813;-80
2023/01/04 09:17:10;;;;;;;3.40;2.90;;;5.90;99.90;;;;;;4961995;28;20037;-81
2023/01/04 09:19:36;;;;;;;3.93;2.80;;;6.00;99.90;;;;;;4959620;28;20178;-81
2023/01/04 09:22:02;;;;;;;4.30;2.97;;;6.10;99.90;;;;;;4967447;28;20038;-77
2023/01/04 09:24:27;;;;;;;4.17;2.70;;;6.20;99.90;;;;;;4977848;28;21052;-77
2023/01/04 09:26:53;;;;;;;4.10;3.07;;;6.30;99.90;;;;;;4975857;28;20015;-81
2023/01/04 09:29:19;;;;;;;4.30;2.97;;;6.40;99.90;;;;;;4961387;28;20372;-82
2023/01/04 09:31:44;;;;;;;3.80;2.90;;;6.50;99.90;;;;;;4964046;28;20175;-82
2023/01/04 09:34:11;;;;;;;3.23;2.73;;;6.70;99.90;;;;;;4962800;28;20023;-82
2023/01/04 09:36:37;;;;;;;4.50;3.13;;;6.70;99.90;;;;;;4959694;28;20035;-82
2023/01/04 09:39:02;;;;;;;8.07;2.70;;;6.80;99.90;;;;;;4961908;28;20046;-81
2023/01/04 09:41:44;;;;;;;3.70;2.80;;;6.90;99.90;;;;;;4963682;28;20940;-81
2023/01/04 09:44:10;;;;;;;4.53;2.47;;;6.90;99.90;;;;;;4961035;28;20054;-80
2023/01/04 09:46:54;;;;;;;3.57;2.80;;;7.00;99.90;;;;;;4962076;28;20035;-81
2023/01/04 09:49:29;;;;;;;3.30;2.40;;;7.10;99.90;;;;;;4961630;28;20026;-81
2023/01/04 09:52:04;;;;;;;3.03;1.93;;;7.30;99.90;;;;;;4965413;28;20031;-81
2023/01/04 09:54:43;;;;;;;2.90;2.50;;;7.30;99.90;;;;;;4966590;28;20041;-80
2023/01/04 09:57:22;;;;;;;3.97;2.30;;;7.40;99.90;;;;;;4967878;28;20366;-83
2023/01/04 09:59:52;;;;;;;2.70;2.10;;;7.50;99.90;;;;;;4965572;28;20027;-81
2023/01/04 10:02:26;;;;;;;3.57;2.27;;;7.50;99.90;;;;;;4965279;28;20691;-81
2023/01/04 10:04:51;;;;;;;2.93;2.17;;;7.60;99.90;;;;;;4965520;28;20027;-81
2023/01/04 10:07:31;;;;;;;3.07;2.27;;;7.70;99.90;;;;;;4969112;28;20034;-82
2023/01/04 10:09:57;;;;;;;3.23;2.23;;;7.80;99.90;;;;;;4966139;28;20035;-80
2023/01/04 10:12:38;;;;;;;2.63;1.97;;;7.80;99.90;;;;;;4974366;28;20110;-77
2023/01/04 10:15:15;;;;;;;3.33;2.23;;;7.90;99.90;;;;;;4977340;28;20168;-78
2023/01/04 10:18:15;;;;;;;3.37;2.20;;;8.00;99.90;;;;;;4978214;28;20033;-78
2023/01/04 10:21:02;;;;;;;3.67;2.57;;;8.10;99.90;;;;;;4961189;28;20038;-78
2023/01/04 10:24:06;;;;;;;3.17;2.27;;;8.10;99.90;;;;;;4965180;28;20133;-81
2023/01/04 10:26:53;;;;;;;3.73;2.03;;;8.10;99.90;;;;;;4966412;28;20063;-81
2023/01/04 10:29:45;;;;;;;4.03;2.30;;;8.20;99.90;;;;;;4966916;28;20562;-82
2023/01/04 10:32:27;;;;;;;2.97;2.10;;;8.20;99.90;;;;;;4965837;28;20058;-82
2023/01/04 10:34:53;;;;;;;2.57;1.67;;;8.30;99.90;;;;;;4966234;28;20038;-82
2023/01/04 10:37:23;;;;;;;3.40;1.80;;;8.40;99.90;;;;;;4971057;28;20416;-78
2023/01/04 10:39:51;;;;;;;2.70;1.60;;;8.40;99.90;;;;;;4977113;28;20027;-78
2023/01/04 10:42:36;;;;;;;3.03;1.87;;;8.30;99.90;;;;;;4975329;28;20019;-82
2023/01/04 10:45:19;;;;;;;2.33;1.60;;;8.30;99.90;;;;;;4969944;28;20125;-78
2023/01/04 10:47:51;;;;;;;2.37;1.60;;;8.20;99.90;;;;;;4968065;28;20510;-81
2023/01/04 10:50:29;;;;;;;2.80;1.80;;;8.20;99.90;;;;;;4965137;28;20431;-81
2023/01/04 10:53:18;;;;;;;2.17;1.50;;;8.10;99.90;;;;;;4966803;28;20464;-81
2023/01/04 10:55:49;;;;;;;3.63;1.50;;;8.10;99.90;;;;;;4965038;28;20026;-82
2023/01/04 10:58:33;;;;;;;3.40;2.43;;;8.10;99.90;;;;;;4963753;28;20487;-83
2023/01/04 11:01:05;;;;;;;3.17;1.80;;;8.10;99.90;;;;;;4966994;28;20664;-83
2023/01/04 11:03:50;;;;;;;2.60;1.63;;;8.10;99.90;;;;;;4964248;28;20419;-82
2023/01/04 11:06:27;;;;;;;3.95;1.60;;;8.10;99.90;;;;;;4965175;28;20883;-78
2023/01/04 11:09:01;;;;;;;1.70;1.20;;;8.10;99.90;;;;;;4976677;28;20022;-78
2023/01/04 11:11:43;;;;;;;1.90;1.30;;;8.20;99.90;;;;;;4976180;28;20131;-77
2023/01/04 11:14:09;;;;;;;1.93;1.50;;;8.30;99.90;;;;;;4977788;28;20022;-76
2023/01/04 11:16:35;;;;;;;1.50;1.20;;;8.30;99.90;;;;;;4979704;28;20105;-77
2023/01/04 11:19:03;;;;;;;1.93;1.30;;;8.30;99.90;;;;;;4975583;28;20034;-77
2023/01/04 11:21:37;;;;;;;2.00;1.43;;;8.40;99.90;;;;;;4977477;28;20085;-77
2023/01/04 11:24:05;;;;;;;3.10;1.30;;;8.40;99.90;;;;;;4978809;28;20027;-77
2023/01/04 11:26:38;;;;;;;6.77;1.40;;;8.40;99.90;;;;;;4964537;28;20038;-81
2023/01/04 11:29:24;;;;;;;2.03;1.20;;;8.40;99.90;;;;;;4962826;28;20063;-81
2023/01/04 11:32:00;;;;;;;2.47;1.40;;;8.50;99.90;;;;;;4965494;28;21537;-82
2023/01/04 11:34:47;;;;;;;2.17;1.37;;;8.60;99.90;;;;;;4963956;28;20038;-81
2023/01/04 11:37:32;;;;;;;1.93;1.30;;;8.70;99.90;;;;;;4963784;28;20055;-81
2023/01/04 11:40:15;;;;;;;2.63;1.30;;;8.80;99.90;;;;;;4990800;28;20026;-77
2023/01/04 11:42:41;;;;;;;2.63;1.30;;;8.80;99.90;;;;;;4974045;28;20152;-78
2023/01/04 11:45:17;;;;;;;1.67;1.10;;;8.80;99.90;;;;;;4977894;28;20134;-77
2023/01/04 11:47:48;;;;;;;2.27;1.43;;;8.80;99.90;;;;;;4978034;28;20018;-77
2023/01/04 11:50:34;;;;;;;3.70;1.40;;;8.90;99.90;;;;;;4982006;28;20054;-77
2023/01/04 11:52:59;;;;;;;;;;;9.00;99.90;;;;;;4977823;28;20041;-77
2023/01/04 11:55:27;;;;;;;3.20;1.23;;;9.00;99.90;;;;;;4983244;28;19910;-78
2023/01/04 11:58:13;;;;;;;2.00;1.40;;;9.10;99.90;;;;;;4979688;28;20042;-77
2023/01/04 12:00:52;;;;;;;2.90;1.60;;;9.10;99.90;;;;;;4976559;28;20030;-72
2023/01/04 12:03:25;;;;;;;2.23;1.43;;;9.10;99.90;;;;;;4978758;28;20042;-77
2023/01/04 12:05:51;;;;;;;4.33;1.20;;;9.20;99.90;;;;;;4976674;28;20018;-77
2023/01/04 12:08:34;;;;;;;1.93;1.20;;;9.20;99.90;;;;;;4979144;28;20034;-77
2023/01/04 12:11:02;;;;;;;2.57;1.10;;;9.30;99.90;;;;;;4978098;28;21346;-76
2023/01/04 12:13:29;;;;;;;2.70;1.20;;;9.30;99.90;;;;;;4977443;28;20299;-77
2023/01/04 12:16:18;;;;;;;1.37;1.00;;;9.40;99.90;;;;;;4978541;28;20038;-77
2023/01/04 12:18:45;;;;;;;1.10;0.90;;;9.40;99.90;;;;;;4968526;28;20360;-81
2023/01/04 12:21:25;;;;;;;2.90;0.83;;;9.50;99.90;;;;;;4965970;28;20031;-81
2023/01/04 12:23:52;;;;;;;1.70;1.10;;;9.50;99.90;;;;;;4965181;28;20074;-81
2023/01/04 12:26:19;;;;;;;3.20;1.30;;;9.50;99.90;;;;;;4961878;28;20763;-81
2023/01/04 12:28:47;;;;;;;2.37;1.10;;;9.40;99.90;;;;;;4963216;28;20137;-81
2023/01/04 12:31:19;;;;;;;1.13;0.90;;;9.40;99.90;;;;;;4967342;28;20479;-77
2023/01/04 12:33:55;;;;;;;2.03;1.20;;;9.40;99.90;;;;;;4981153;28;20026;-77
2023/01/04 12:36:41;;;;;;;2.00;1.20;;;9.40;99.90;;;;;;4976970;28;20039;-81
2023/01/04 12:39:13;;;;;;;1.13;0.83;;;9.40;99.90;;;;;;4969076;28;20084;-81
2023/01/04 12:41:38;;;;;;;2.07;1.10;;;9.40;99.90;;;;;;4967079;28;20058;-81
2023/01/04 12:44:35;;;;;;;1.20;0.90;;;9.40;99.90;;;;;;4967455;28;20105;-81
2023/01/04 12:50:19;;;;;;;2.95;1.23;;;9.40;99.90;;;;;;4968687;28;20154;-77
2023/01/04 12:53:02;;;;;;;4.70;1.50;;;9.40;99.90;;;;;;4981132;28;20109;-77
2023/01/04 12:55:30;;;;;;;2.53;1.30;;;9.40;99.90;;;;;;4976968;28;20163;-77
2023/01/04 12:57:57;;;;;;;1.50;1.07;;;9.40;99.90;;;;;;4976319;28;20085;-77
2023/01/04 13:00:43;;;;;;;1.43;0.93;;;9.40;99.90;;;;;;4978139;28;20023;-77
2023/01/04 13:03:15;;;;;;;2.40;1.00;;;9.40;99.90;;;;;;4975504;28;20468;-77
2023/01/04 13:06:00;;;;;;;2.60;1.20;;;9.40;99.90;;;;;;4979749;28;20019;-78
2023/01/04 13:08:26;;;;;;;2.77;1.10;;;9.40;99.90;;;;;;4978691;28;20471;-77
2023/01/04 13:10:54;;;;;;;1.80;0.90;;;9.50;99.90;;;;;;4978180;28;20026;-77
2023/01/04 13:13:25;;;;;;;2.87;0.80;;;9.50;99.90;;;;;;4979001;28;20391;-77
2023/01/04 13:16:19;;;;;;;1.33;0.80;;;9.50;99.90;;;;;;4978457;28;20493;-77
2023/01/04 13:18:55;;;;;;;1.37;0.80;;;9.70;99.90;;;;;;4978564;28;20503;-77
2023/01/04 13:21:45;;;;;;;2.37;0.80;;;9.70;99.90;;;;;;4979064;28;20019;-77
2023/01/04 13:24:22;;;;;;;1.40;0.90;;;9.70;99.90;;;;;;4978972;28;20046;-77
2023/01/04 13:26:49;;;;;;;1.97;0.80;;;9.70;99.90;;;;;;4977701;28;20034;-77
2023/01/04 13:29:22;;;;;;;1.70;0.80;;;9.70;99.90;;;;;;4979331;28;20027;-77
2023/01/04 13:31:58;;;;;;;4.73;0.90;;;9.80;99.90;;;;;;4978934;28;20021;-77
2023/01/04 13:34:38;;;;;;;1.60;0.90;;;9.80;99.90;;;;;;4975859;28;20033;-81
2023/01/04 13:37:09;;;;;;;1.30;0.77;;;9.80;99.90;;;;;;4959750;28;20344;-80
2023/01/04 13:39:37;;;;;;;1.17;0.90;;;9.80;99.90;;;;;;4959197;28;20073;-80
2023/01/04 13:42:04;;;;;;;1.10;0.80;;;9.90;99.90;;;;;;4961999;28;20470;-80
2023/01/04 13:44:49;;;;;;;1.57;1.10;;;9.90;99.90;;;;;;4961305;28;20114;-81
2023/01/04 13:47:14;;;;;;;1.23;0.90;;;10.00;99.90;;;;;;4961153;28;20058;-80
2023/01/04 13:49:40;;;;;;;1.70;1.00;;;10.00;99.90;;;;;;4961252;28;20070;-80
2023/01/04 13:52:25;;;;;;;1.80;1.03;;;10.00;99.90;;;;;;4961161;28;20039;-80
2023/01/04 13:54:50;;;;;;;1.50;1.20;;;10.10;99.90;;;;;;4959496;28;20633;-76
2023/01/04 13:57:19;;;;;;;1.37;1.00;;;10.00;99.90;;;;;;4961040;28;20102;-81